Arica, Chile

9:42 AM CLT on July 23, 2014 (GMT -0400)
Chacalluta International (SCAR) Elev 190 ft | 18.35 °S, 70.34 °W | Change Station

Current weather conditions updated 42 minutes ago

Overcast
Overcast
59 °F
Feels Like 59 °F
N
7
Wind Variable Wind from South

Today is forecast to be Much Warmer than yesterday.

Today
High -- | Low -- °F
--% Chance of Precip.
Yesterday
High -- | Low -- °F
Precip. -- in
7:11 AM 6:23 PM
Waning Crescent, 10% visible
Pressure 30.18 in
Visibility 6.2 miles
Clouds Overcast 3600 ft
Dew Point 50 °F
Humidity 72%
Rainfall 0.00 in
Snow Depth Not available.
UV 1 out of 12
Pollen Not available.
Air Quality Not available.
Flu Activity Not available.
METAR SCAR 231300Z 19006KT 9999 OVC036 15/10 Q1022

More Conditions Fewer Conditions

Pressure 30.18 in
Visibility 6.2 miles
Clouds Overcast 3600 ft
Dew Point 50 °F
Humidity 72%
Rainfall 0.00 in
Snow Depth Not available.
UV 1 out of 12
Pollen Not available.
Air Quality Not available.
Flu Activity Not available.
METAR SCAR 231300Z 19006KT 9999 OVC036 15/10 Q1022

More Conditions Fewer Conditions

10-Day Weather Forecast

Almanac

Astronomy

Jul. 23, 2014 Rise Set
Actual Time 7:11 AM CLT 6:23 PM CLT
Civil Twilight 6:48 AM CLT 6:47 PM CLT
Nautical Twilight 6:22 AM CLT 7:13 PM CLT
Astronomical Twilight 5:55 AM CLT 7:40 PM CLT
Moon 4:23 AM CLT 3:53 PM CLT
Length of Visible Light 11h 58m
Length of Day
11h 12m
Tomorrow will be 0m 37s longer.
Waning Crescent, 10% of the Moon is Illuminated
Today
Waning Crescent
Jul 26
New
Aug 3
First Quarter
Aug 10
Full
Aug 17
Last Quarter

Yesterday's Extremes

Country Highs Country Lows

Community

WunderPhotos

Upload Photos

1,736,594 photos uploaded!

Nearby

Snow Depth

Not available.

Earthquake Activity

City Distance Mag. Time & Date
No recent earthquake activity has been reported nearby.
Minimum magnitude displayed is 2.5.

Coastal Water Temperatures

Place Temperature
No Stations Reporting

Nearby Weather Stations

There are no personal weather stations in this area.